createdAt,value
2019-02-27T00:00:32.581Z,28.87
2019-02-27T00:01:26.380Z,28.90
2019-02-27T00:02:02.953Z,28.92
2019-02-27T00:02:39.538Z,29.00
2019-02-27T00:03:16.029Z,29.13
2019-02-27T00:03:52.528Z,29.32
2019-02-27T00:04:29.048Z,29.64
2019-02-27T00:05:08.533Z,29.64
2019-02-27T00:05:45.477Z,29.79
2019-02-27T00:06:25.230Z,29.93
2019-02-27T00:07:01.514Z,30.05
2019-02-27T00:07:37.771Z,30.19
2019-02-27T00:08:15.390Z,30.30
2019-02-27T00:08:54.754Z,30.57
2019-02-27T00:09:32.973Z,30.57
2019-02-27T00:10:10.804Z,30.77
2019-02-27T00:10:47.083Z,30.96
2019-02-27T00:11:23.865Z,31.04
2019-02-27T00:12:00.679Z,31.24
2019-02-27T00:12:36.978Z,31.24
2019-02-27T00:13:13.274Z,31.35
2019-02-27T00:13:49.559Z,31.41
2019-02-27T00:14:31.262Z,31.35
2019-02-27T00:15:08.271Z,31.17
2019-02-27T00:15:47.066Z,31.17
2019-02-27T00:16:26.711Z,31.05
2019-02-27T00:17:03.199Z,31.05
2019-02-27T00:17:40.040Z,31.00
2019-02-27T00:18:37.531Z,30.96
2019-02-27T00:19:15.170Z,30.85
2019-02-27T00:20:04.083Z,30.74
2019-02-27T00:20:38.195Z,30.63
2019-02-27T00:21:17.718Z,30.63
2019-02-27T00:21:54.382Z,30.55
2019-02-27T00:22:34.661Z,30.54
2019-02-27T00:23:10.949Z,30.54
2019-02-27T00:23:50.723Z,30.42
2019-02-27T00:24:29.882Z,30.42
2019-02-27T00:25:05.602Z,30.44
2019-02-27T00:25:42.233Z,30.40
2019-02-27T00:26:18.520Z,30.41
2019-02-27T00:26:56.401Z,30.41
2019-02-27T00:27:32.953Z,30.41
2019-02-27T00:28:12.232Z,30.44
2019-02-27T00:28:55.917Z,30.43
2019-02-27T00:29:52.966Z,30.51
2019-02-27T00:30:33.324Z,30.51
2019-02-27T00:31:16.058Z,30.54
2019-02-27T00:31:52.534Z,30.56
2019-02-27T00:32:28.926Z,30.57
2019-02-27T00:33:05.404Z,30.54
2019-02-27T00:33:51.480Z,30.54
2019-02-27T00:34:28.057Z,30.58
2019-02-27T00:35:07.290Z,30.53
2019-02-27T00:35:43.189Z,30.53
2019-02-27T00:36:19.719Z,30.47
2019-02-27T00:36:57.336Z,30.55
2019-02-27T00:37:34.549Z,30.57
2019-02-27T00:38:11.988Z,30.59
2019-02-27T00:38:48.403Z,30.59
2019-02-27T00:39:26.161Z,30.57
2019-02-27T00:40:05.613Z,30.65
2019-02-27T00:40:46.557Z,30.65
2019-02-27T00:41:23.760Z,30.71
2019-02-27T00:42:00.279Z,30.69
2019-02-27T00:42:39.498Z,30.76
2019-02-27T00:43:16.020Z,30.82
2019-02-27T00:44:10.781Z,30.82
2019-02-27T00:44:47.391Z,30.80
2019-02-27T00:45:24.210Z,30.86
2019-02-27T00:46:00.550Z,30.88
2019-02-27T00:46:37.514Z,30.90
2019-02-27T00:47:14.001Z,30.96
2019-02-27T00:47:52.786Z,31.00
2019-02-27T00:48:28.890Z,31.08
2019-02-27T00:49:10.963Z,31.08
2019-02-27T00:49:48.963Z,31.09
2019-02-27T00:50:26.622Z,31.09
2019-02-27T00:51:05.716Z,31.15
2019-02-27T00:51:44.971Z,31.19
2019-02-27T00:52:23.630Z,31.23
2019-02-27T00:53:00.422Z,31.18
2019-02-27T00:53:37.350Z,31.18
2019-02-27T00:54:14.516Z,31.22
2019-02-27T00:54:50.951Z,31.25
2019-02-27T00:55:27.271Z,31.26
2019-02-27T00:56:04.373Z,31.26
2019-02-27T00:56:45.812Z,31.31
2019-02-27T00:57:23.004Z,31.30
2019-02-27T00:57:59.767Z,31.30
2019-02-27T00:58:36.269Z,31.37
2019-02-27T00:59:17.623Z,31.42
2019-02-27T00:59:54.781Z,31.46
2019-02-27T01:00:39.243Z,31.46
2019-02-27T01:01:17.617Z,31.56
2019-02-27T01:01:55.014Z,31.60
2019-02-27T01:02:32.237Z,31.65
2019-02-27T01:03:09.239Z,31.67
2019-02-27T01:03:45.640Z,31.72
2019-02-27T01:04:26.763Z,31.76
2019-02-27T01:05:09.149Z,31.80
2019-02-27T01:05:45.789Z,31.86
2019-02-27T01:06:25.311Z,31.88
2019-02-27T01:07:01.729Z,31.95
2019-02-27T01:07:38.822Z,32.01
2019-02-27T01:08:17.587Z,32.05
2019-02-27T01:08:54.196Z,32.07
2019-02-27T01:09:30.517Z,32.10
2019-02-27T01:10:12.060Z,32.16
2019-02-27T01:10:48.883Z,32.17
2019-02-27T01:11:25.292Z,32.17
2019-02-27T01:12:01.715Z,32.20
2019-02-27T01:12:38.225Z,32.24
2019-02-27T01:13:21.902Z,32.24
2019-02-27T01:13:58.343Z,32.20
2019-02-27T01:14:36.881Z,32.26
2019-02-27T01:15:15.775Z,32.28
2019-02-27T01:15:52.571Z,32.30
2019-02-27T01:16:29.371Z,32.33
2019-02-27T01:17:05.777Z,32.38
2019-02-27T01:17:42.117Z,32.45
2019-02-27T01:18:21.336Z,32.49
2019-02-27T01:18:58.576Z,32.52
2019-02-27T01:19:38.479Z,32.57
2019-02-27T01:20:14.698Z,32.62
2019-02-27T01:20:52.287Z,32.65
2019-02-27T01:21:28.695Z,32.67
2019-02-27T01:22:05.948Z,32.72
2019-02-27T01:22:49.576Z,32.71
2019-02-27T01:23:26.000Z,32.78
2019-02-27T01:24:02.468Z,32.81
2019-02-27T01:24:38.807Z,32.83
2019-02-27T01:25:16.598Z,32.86
2019-02-27T01:25:56.105Z,32.82
2019-02-27T01:26:31.594Z,32.87
2019-02-27T01:27:08.245Z,32.82
2019-02-27T01:27:44.514Z,32.79
2019-02-27T01:28:20.971Z,32.81
2019-02-27T01:28:57.475Z,32.78
2019-02-27T01:29:34.055Z,32.82
2019-02-27T01:30:15.136Z,32.80
2019-02-27T01:30:51.560Z,32.82
2019-02-27T01:31:30.425Z,32.85
2019-02-27T01:32:07.018Z,32.87
2019-02-27T01:32:45.182Z,32.86
2019-02-27T01:33:21.833Z,32.91
2019-02-27T01:33:58.255Z,32.92
2019-02-27T01:34:34.619Z,32.99
2019-02-27T01:35:17.632Z,33.02
2019-02-27T01:35:52.412Z,33.07
2019-02-27T01:36:29.788Z,33.11
2019-02-27T01:37:07.692Z,33.13
2019-02-27T01:37:44.189Z,33.11
2019-02-27T01:38:21.191Z,33.13
2019-02-27T01:39:00.026Z,33.18
2019-02-27T01:39:37.624Z,33.19
2019-02-27T01:40:18.062Z,33.17
2019-02-27T01:40:54.976Z,33.14
2019-02-27T01:41:32.978Z,33.14
2019-02-27T01:42:10.824Z,33.18
2019-02-27T01:42:47.391Z,33.20
2019-02-27T01:43:24.022Z,33.22
2019-02-27T01:44:01.504Z,33.22
2019-02-27T01:44:46.533Z,33.19
2019-02-27T01:45:23.067Z,33.14
2019-02-27T01:45:59.475Z,33.06
2019-02-27T01:46:35.901Z,33.07
2019-02-27T01:47:12.328Z,33.07
2019-02-27T01:47:48.838Z,33.10
2019-02-27T01:48:25.639Z,33.15
2019-02-27T01:49:02.214Z,33.13
2019-02-27T01:49:38.562Z,33.17
2019-02-27T01:50:37.969Z,33.24
2019-02-27T01:51:14.491Z,33.26
2019-02-27T01:51:53.062Z,33.32
2019-02-27T01:52:40.432Z,33.35
2019-02-27T01:53:16.801Z,33.41
2019-02-27T01:53:54.580Z,33.50
2019-02-27T01:54:32.631Z,33.52
2019-02-27T01:55:09.724Z,33.59
2019-02-27T01:55:46.689Z,33.63
2019-02-27T01:56:23.555Z,33.68
2019-02-27T01:57:02.936Z,33.73
2019-02-27T01:57:54.239Z,33.79
2019-02-27T01:58:33.743Z,33.87
2019-02-27T01:59:10.614Z,33.96
2019-02-27T01:59:50.066Z,34.03
2019-02-27T02:00:26.661Z,34.06
2019-02-27T02:01:03.072Z,33.95
2019-02-27T02:01:42.228Z,34.01
2019-02-27T02:02:18.618Z,34.05
2019-02-27T02:02:55.149Z,34.10
2019-02-27T02:03:32.066Z,34.16
2019-02-27T02:04:09.335Z,34.23
2019-02-27T02:04:53.122Z,34.27
2019-02-27T02:05:28.765Z,34.27
2019-02-27T02:06:05.958Z,34.34
2019-02-27T02:06:42.892Z,34.34
2019-02-27T02:07:22.647Z,34.33
2019-02-27T02:07:59.666Z,34.39
2019-02-27T02:08:36.763Z,34.42
2019-02-27T02:09:52.145Z,34.44
2019-02-27T02:10:29.398Z,34.46
2019-02-27T02:11:05.910Z,34.49
2019-02-27T02:11:47.000Z,34.51
2019-02-27T02:12:33.007Z,34.53
2019-02-27T02:13:32.581Z,34.52
2019-02-27T02:15:01.839Z,34.45
2019-02-27T02:16:11.798Z,34.51
2019-02-27T02:17:07.451Z,34.57
2019-02-27T02:18:17.374Z,34.49
2019-02-27T02:19:34.551Z,34.50
2019-02-27T02:20:46.462Z,34.47
2019-02-27T02:21:53.989Z,34.53
2019-02-27T02:23:08.560Z,34.61
2019-02-27T02:24:21.693Z,34.66
2019-02-27T02:25:42.617Z,34.68
2019-02-27T02:27:02.315Z,34.66
2019-02-27T02:28:22.822Z,34.55
2019-02-27T02:29:54.341Z,34.59
2019-02-27T02:31:25.792Z,34.51
2019-02-27T02:32:39.029Z,34.38
2019-02-27T02:33:45.293Z,34.47
2019-02-27T02:35:04.227Z,34.52
2019-02-27T02:36:26.859Z,34.58
2019-02-27T02:37:33.763Z,34.58
2019-02-27T02:38:32.832Z,34.58
2019-02-27T02:39:29.379Z,34.67
2019-02-27T02:40:56.390Z,34.71
2019-02-27T02:42:17.006Z,34.76
2019-02-27T02:43:30.536Z,34.84
2019-02-27T02:44:30.617Z,34.85
2019-02-27T02:45:16.925Z,34.81
2019-02-27T02:46:17.417Z,34.85
2019-02-27T02:47:38.913Z,34.86
2019-02-27T02:49:06.464Z,34.88
2019-02-27T02:50:29.521Z,34.83
2019-02-27T02:51:52.276Z,34.90
2019-02-27T02:52:59.708Z,34.99
2019-02-27T02:54:02.267Z,35.02
2019-02-27T02:55:47.733Z,35.08
2019-02-27T02:57:05.184Z,35.11
2019-02-27T02:58:03.773Z,35.10
2019-02-27T02:59:05.489Z,35.16
2019-02-27T03:00:23.809Z,35.15
2019-02-27T03:01:36.003Z,35.16
2019-02-27T03:02:41.948Z,35.16
2019-02-27T03:03:46.270Z,35.21
2019-02-27T03:05:36.430Z,35.22
2019-02-27T03:06:56.869Z,35.22
2019-02-27T03:08:12.601Z,35.23
2019-02-27T03:09:31.807Z,35.26
2019-02-27T03:10:27.697Z,35.20
2019-02-27T03:11:40.184Z,35.35
2019-02-27T03:12:55.356Z,35.41
2019-02-27T03:13:58.153Z,35.45
2019-02-27T03:15:40.276Z,35.48
2019-02-27T03:17:17.817Z,35.48
2019-02-27T03:18:36.562Z,35.53
2019-02-27T03:20:01.823Z,35.63
2019-02-27T03:21:44.898Z,35.68
2019-02-27T03:23:15.575Z,35.72
2019-02-27T03:25:03.608Z,35.74
2019-02-27T03:26:24.726Z,35.82
2019-02-27T03:28:07.066Z,35.90
2019-02-27T03:31:57.944Z,35.92
2019-02-27T03:32:53.240Z,35.96
2019-02-27T03:34:08.124Z,36.01
2019-02-27T03:35:11.187Z,35.95
2019-02-27T03:36:39.751Z,36.01
2019-02-27T03:37:58.223Z,36.08
2019-02-27T03:39:08.756Z,36.13
2019-02-27T03:40:16.185Z,36.23
2019-02-27T03:41:22.536Z,36.32
2019-02-27T03:42:20.032Z,36.29
2019-02-27T03:43:59.344Z,36.28
2019-02-27T03:45:34.749Z,36.34
2019-02-27T03:46:41.835Z,36.44
2019-02-27T03:47:53.010Z,36.53
2019-02-27T03:49:07.928Z,36.59
2019-02-27T03:50:27.739Z,36.65
2019-02-27T03:51:35.470Z,36.69
2019-02-27T03:53:13.203Z,36.69
2019-02-27T03:54:44.941Z,36.70
2019-02-27T03:56:09.942Z,36.70
2019-02-27T03:57:54.958Z,36.72
2019-02-27T03:59:11.064Z,36.75
2019-02-27T04:00:22.734Z,36.76
2019-02-27T04:02:05.730Z,36.83
2019-02-27T04:03:30.450Z,36.89
2019-02-27T04:04:44.951Z,36.91
2019-02-27T04:06:03.136Z,36.88
2019-02-27T04:07:15.291Z,36.86
2019-02-27T04:08:15.273Z,36.84
2019-02-27T04:09:10.633Z,36.80
2019-02-27T04:09:55.376Z,36.78
2019-02-27T04:10:42.383Z,36.77
2019-02-27T04:11:21.540Z,36.75
2019-02-27T04:11:57.832Z,36.72
2019-02-27T04:12:35.220Z,36.77
2019-02-27T04:13:15.662Z,36.80
2019-02-27T04:13:53.551Z,36.83
2019-02-27T04:14:41.777Z,36.86
2019-02-27T04:15:18.143Z,36.89
2019-02-27T04:15:55.516Z,36.93
2019-02-27T04:16:33.764Z,36.93
2019-02-27T04:17:13.606Z,36.99
2019-02-27T04:17:51.820Z,37.01
2019-02-27T04:18:27.383Z,37.05
2019-02-27T04:19:04.714Z,37.07
2019-02-27T04:19:45.251Z,37.11
2019-02-27T04:20:21.445Z,37.10
2019-02-27T04:21:00.914Z,37.13
2019-02-27T04:21:40.708Z,37.12
2019-02-27T04:22:17.028Z,37.14
2019-02-27T04:22:56.346Z,37.10
2019-02-27T04:23:36.759Z,37.12
2019-02-27T04:24:13.123Z,37.13
2019-02-27T04:24:56.256Z,37.16
2019-02-27T04:25:31.526Z,37.16
2019-02-27T04:26:07.226Z,37.19
2019-02-27T04:26:44.794Z,37.20
2019-02-27T04:27:30.361Z,37.18
2019-02-27T04:28:06.606Z,37.13
2019-02-27T04:29:18.703Z,37.17
2019-02-27T04:30:33.692Z,37.17
2019-02-27T04:31:11.766Z,37.11
2019-02-27T04:31:49.591Z,37.13
2019-02-27T04:32:27.671Z,37.13
2019-02-27T04:33:26.077Z,37.14
2019-02-27T04:34:02.797Z,37.20
2019-02-27T04:34:39.983Z,37.22
2019-02-27T04:35:29.879Z,37.23
2019-02-27T04:36:06.412Z,37.24
2019-02-27T04:36:46.906Z,37.29
2019-02-27T04:37:23.813Z,37.34
2019-02-27T04:38:16.291Z,37.37
2019-02-27T04:39:02.474Z,37.42
2019-02-27T04:39:41.407Z,37.46
2019-02-27T04:40:20.632Z,37.48
2019-02-27T04:40:57.523Z,37.40
2019-02-27T04:41:35.223Z,37.36
2019-02-27T04:42:16.119Z,37.39
2019-02-27T04:43:12.333Z,37.44
2019-02-27T04:44:10.709Z,37.46
2019-02-27T04:44:47.252Z,37.53
2019-02-27T04:45:46.886Z,37.60
2019-02-27T04:46:23.922Z,37.66
2019-02-27T04:47:00.867Z,37.66
2019-02-27T04:47:38.162Z,37.68
2019-02-27T04:48:15.707Z,37.61
2019-02-27T04:49:13.435Z,37.60
2019-02-27T04:49:58.506Z,37.51
2019-02-27T04:50:44.739Z,37.52
2019-02-27T04:51:21.142Z,37.52
2019-02-27T04:51:58.017Z,37.51
2019-02-27T04:52:58.662Z,37.54
2019-02-27T04:53:56.156Z,37.54
2019-02-27T04:54:41.281Z,37.61
2019-02-27T04:55:17.255Z,37.65
2019-02-27T04:55:58.177Z,37.68
2019-02-27T04:56:34.577Z,37.70
2019-02-27T04:57:10.831Z,37.70
2019-02-27T04:58:09.080Z,37.72
2019-02-27T04:58:45.592Z,37.74
2019-02-27T04:59:23.173Z,37.72
2019-02-27T05:00:01.809Z,37.75
2019-02-27T05:00:51.416Z,37.75
2019-02-27T05:01:30.383Z,37.77
2019-02-27T05:02:12.102Z,37.82
2019-02-27T05:02:50.462Z,37.85
2019-02-27T05:03:56.253Z,37.86
2019-02-27T05:04:35.297Z,37.87
2019-02-27T05:05:21.782Z,37.91
2019-02-27T05:05:58.139Z,37.95
2019-02-27T05:06:40.198Z,37.94
2019-02-27T05:07:24.571Z,37.99
2019-02-27T05:08:07.784Z,38.03
2019-02-27T05:08:59.970Z,38.06
2019-02-27T05:09:38.426Z,38.10
2019-02-27T05:10:16.352Z,38.12
2019-02-27T05:10:54.867Z,38.15
2019-02-27T05:11:38.859Z,38.17
2019-02-27T05:13:11.162Z,38.19
2019-02-27T05:14:07.633Z,38.22
2019-02-27T05:14:46.486Z,38.22
2019-02-27T05:15:29.313Z,38.23
2019-02-27T05:16:07.500Z,38.22
2019-02-27T05:16:47.918Z,38.21
2019-02-27T05:17:29.002Z,38.23
2019-02-27T05:18:08.504Z,38.23
2019-02-27T05:18:46.459Z,38.22
2019-02-27T05:19:22.782Z,38.22
2019-02-27T05:19:59.155Z,38.23
2019-02-27T05:20:45.885Z,38.23
2019-02-27T05:21:22.688Z,38.23
2019-02-27T05:22:08.615Z,38.17
2019-02-27T05:22:45.940Z,38.20
2019-02-27T05:23:22.388Z,38.21
2019-02-27T05:24:05.143Z,38.09
2019-02-27T05:24:42.231Z,38.04
2019-02-27T05:25:19.783Z,38.10
2019-02-27T05:25:56.370Z,38.13
2019-02-27T05:26:34.419Z,38.16
2019-02-27T05:27:11.233Z,38.19
2019-02-27T05:27:50.108Z,38.24
2019-02-27T05:28:27.601Z,38.28
2019-02-27T05:29:04.888Z,38.33
2019-02-27T05:29:42.291Z,38.34
2019-02-27T05:30:18.979Z,38.37
2019-02-27T05:30:56.784Z,38.41
2019-02-27T05:31:34.445Z,38.46
2019-02-27T05:32:11.039Z,38.52
2019-02-27T05:32:47.787Z,38.51
2019-02-27T05:33:25.847Z,38.56
2019-02-27T05:34:02.211Z,38.60
2019-02-27T05:34:59.325Z,38.62
2019-02-27T05:35:36.546Z,38.61
2019-02-27T05:36:12.843Z,38.65
2019-02-27T05:36:49.161Z,38.69
2019-02-27T05:37:29.066Z,38.70
2019-02-27T05:38:11.153Z,38.72
2019-02-27T05:38:47.627Z,38.76
2019-02-27T05:39:25.122Z,38.78
2019-02-27T05:40:39.832Z,38.76
2019-02-27T05:41:16.390Z,38.74
2019-02-27T05:41:53.499Z,38.72
2019-02-27T05:42:29.797Z,38.66
2019-02-27T05:43:13.211Z,38.49
2019-02-27T05:43:48.763Z,38.29
2019-02-27T05:44:25.463Z,38.13
2019-02-27T05:45:01.816Z,37.94
2019-02-27T05:45:39.031Z,37.84
2019-02-27T05:46:15.361Z,37.73
2019-02-27T05:46:53.582Z,37.62
2019-02-27T05:47:31.919Z,37.54
2019-02-27T05:48:11.569Z,37.44
2019-02-27T05:48:50.957Z,37.37
2019-02-27T05:49:27.437Z,37.28
2019-02-27T05:50:07.319Z,37.22
2019-02-27T05:50:45.051Z,37.29
2019-02-27T05:51:21.311Z,37.44
2019-02-27T05:52:00.556Z,37.55
2019-02-27T05:52:37.169Z,37.63
2019-02-27T05:53:13.387Z,37.66
2019-02-27T05:53:52.654Z,37.75
2019-02-27T05:54:32.979Z,37.79
2019-02-27T05:55:14.079Z,37.82
2019-02-27T05:55:53.311Z,37.83
2019-02-27T05:56:29.775Z,37.86
2019-02-27T05:57:08.459Z,37.89
2019-02-27T05:57:47.163Z,37.87
2019-02-27T05:58:23.714Z,37.83
2019-02-27T05:59:01.553Z,37.87
2019-02-27T05:59:38.397Z,37.89
2019-02-27T06:00:17.697Z,37.92
2019-02-27T06:00:54.163Z,37.97
2019-02-27T06:01:32.379Z,38.01
2019-02-27T06:02:11.022Z,38.08
2019-02-27T06:03:02.718Z,38.16
2019-02-27T06:03:45.541Z,38.23
2019-02-27T06:04:25.705Z,38.29
2019-02-27T06:05:06.694Z,38.34
2019-02-27T06:05:49.656Z,38.40
2019-02-27T06:06:24.669Z,38.42
2019-02-27T06:07:01.871Z,38.41
2019-02-27T06:07:39.568Z,38.45
2019-02-27T06:08:19.452Z,38.47
2019-02-27T06:08:58.433Z,38.47
2019-02-27T06:09:41.426Z,38.48
2019-02-27T06:10:37.535Z,38.50
2019-02-27T06:11:22.777Z,38.52
2019-02-27T06:11:59.294Z,38.55
2019-02-27T06:12:38.110Z,38.56
2019-02-27T06:13:16.325Z,38.58
2019-02-27T06:14:03.374Z,38.58
2019-02-27T06:14:39.977Z,38.61
2019-02-27T06:15:21.002Z,38.66
2019-02-27T06:16:02.853Z,38.67
2019-02-27T06:16:42.329Z,38.70
2019-02-27T06:17:18.932Z,38.71
2019-02-27T06:18:04.111Z,38.71
2019-02-27T06:18:44.074Z,38.72
2019-02-27T06:19:21.724Z,38.67
2019-02-27T06:20:09.735Z,38.67
2019-02-27T06:20:48.061Z,38.65
2019-02-27T06:21:27.788Z,38.66
2019-02-27T06:22:35.641Z,38.66
2019-02-27T06:23:22.983Z,38.68
2019-02-27T06:24:00.739Z,38.68
2019-02-27T06:24:37.356Z,38.69
2019-02-27T06:25:23.590Z,38.66
2019-02-27T06:26:05.113Z,38.58
2019-02-27T06:26:41.312Z,38.38
2019-02-27T06:27:17.784Z,38.23
2019-02-27T06:27:58.163Z,38.16
2019-02-27T06:28:37.093Z,38.21
2019-02-27T06:29:13.495Z,38.28
2019-02-27T06:29:49.814Z,38.23
2019-02-27T06:30:27.947Z,38.29
2019-02-27T06:31:05.517Z,38.30
2019-02-27T06:31:45.228Z,38.32
2019-02-27T06:32:22.310Z,38.28
2019-02-27T06:33:20.468Z,38.21
2019-02-27T06:34:22.298Z,38.19
2019-02-27T06:35:00.047Z,38.21
2019-02-27T06:35:37.138Z,38.30
2019-02-27T06:36:13.587Z,38.33
2019-02-27T06:36:50.257Z,38.38
2019-02-27T06:37:27.661Z,38.42
2019-02-27T06:38:04.053Z,38.39
2019-02-27T06:38:51.509Z,38.27
2019-02-27T06:39:28.631Z,38.17
2019-02-27T06:40:07.509Z,38.03
2019-02-27T06:40:47.558Z,37.92
2019-02-27T06:41:26.577Z,37.87
2019-02-27T06:42:04.638Z,37.80
2019-02-27T06:42:45.857Z,37.77
2019-02-27T06:43:27.150Z,37.68
2019-02-27T06:44:02.211Z,37.59
2019-02-27T06:44:39.283Z,37.54
2019-02-27T06:45:17.143Z,37.43
2019-02-27T06:45:56.895Z,37.35
2019-02-27T06:46:41.932Z,37.27
2019-02-27T06:47:21.261Z,37.20
2019-02-27T06:48:00.411Z,37.16
2019-02-27T06:48:38.120Z,37.10
2019-02-27T06:49:18.252Z,37.00
2019-02-27T06:49:53.977Z,36.87
2019-02-27T06:50:35.449Z,36.73
2019-02-27T06:51:11.831Z,36.68
2019-02-27T06:51:48.200Z,36.63
2019-02-27T06:52:25.519Z,36.58
2019-02-27T06:53:03.410Z,36.56
2019-02-27T06:53:39.592Z,36.51
2019-02-27T06:54:18.378Z,36.44
2019-02-27T06:54:56.270Z,36.41
2019-02-27T06:55:39.467Z,36.39
2019-02-27T06:56:17.229Z,36.39
2019-02-27T06:56:56.917Z,36.36
2019-02-27T06:57:46.849Z,36.36
2019-02-27T06:58:33.984Z,36.36
2019-02-27T06:59:13.392Z,36.35
2019-02-27T06:59:49.726Z,36.35
2019-02-27T07:00:26.037Z,36.38
2019-02-27T07:01:09.722Z,36.31
2019-02-27T07:01:48.326Z,36.29
2019-02-27T07:02:27.907Z,36.28
2019-02-27T07:03:04.524Z,36.26
2019-02-27T07:04:08.171Z,36.25
2019-02-27T07:04:56.337Z,36.22
2019-02-27T07:05:33.434Z,36.20
2019-02-27T07:06:13.463Z,36.18
2019-02-27T07:06:58.334Z,36.18
2019-02-27T07:07:41.015Z,36.19
2019-02-27T07:08:57.604Z,36.20
2019-02-27T07:09:43.192Z,36.20
2019-02-27T07:10:26.580Z,36.18
2019-02-27T07:11:10.539Z,36.18
2019-02-27T07:12:00.130Z,36.15
2019-02-27T07:12:39.583Z,36.16
2019-02-27T07:13:17.047Z,36.15
2019-02-27T07:13:53.322Z,36.15
2019-02-27T07:14:32.830Z,36.15
2019-02-27T07:15:15.575Z,36.12
2019-02-27T07:15:55.610Z,36.11
2019-02-27T07:16:38.187Z,36.12
2019-02-27T07:17:15.855Z,36.10
2019-02-27T07:17:54.455Z,36.10
2019-02-27T07:18:32.787Z,36.10
2019-02-27T07:19:13.169Z,36.11
2019-02-27T07:20:30.813Z,36.11
2019-02-27T07:21:09.512Z,36.13
2019-02-27T07:21:55.247Z,36.11
2019-02-27T07:22:31.756Z,36.11
2019-02-27T07:23:09.493Z,36.09
2019-02-27T07:23:51.522Z,36.09
2019-02-27T07:25:20.116Z,36.09
2019-02-27T07:26:27.167Z,36.07
2019-02-27T07:27:18.622Z,36.04
2019-02-27T07:28:13.543Z,36.02
2019-02-27T07:28:50.042Z,35.97
2019-02-27T07:30:16.335Z,35.95
2019-02-27T07:31:37.326Z,35.90
2019-02-27T07:32:35.555Z,35.85
2019-02-27T07:33:59.333Z,35.78
2019-02-27T07:35:46.136Z,35.70
2019-02-27T07:36:22.498Z,35.73
2019-02-27T07:37:25.603Z,35.73
2019-02-27T07:38:25.570Z,35.68
2019-02-27T07:39:05.369Z,35.69
2019-02-27T07:39:41.701Z,35.64
2019-02-27T07:40:43.004Z,35.60
2019-02-27T07:41:22.812Z,35.58
2019-02-27T07:42:00.639Z,35.53
2019-02-27T07:42:45.211Z,35.50
2019-02-27T07:43:23.234Z,35.46
2019-02-27T07:44:03.129Z,35.49
2019-02-27T07:44:55.616Z,35.48
2019-02-27T07:45:32.358Z,35.55
2019-02-27T07:46:11.946Z,35.63
2019-02-27T07:46:48.230Z,35.73
2019-02-27T07:47:24.476Z,35.78
2019-02-27T07:48:01.801Z,35.86
2019-02-27T07:48:41.360Z,35.91
2019-02-27T07:49:19.455Z,35.98
2019-02-27T07:49:57.639Z,36.08
2019-02-27T07:50:58.862Z,36.14
2019-02-27T07:51:37.484Z,36.22
2019-02-27T07:52:14.982Z,36.33
2019-02-27T07:52:54.331Z,36.40
2019-02-27T07:53:36.018Z,36.46
2019-02-27T07:54:13.460Z,36.54
2019-02-27T07:54:50.450Z,36.60
2019-02-27T07:55:31.053Z,36.58
2019-02-27T07:56:12.228Z,36.56
2019-02-27T07:56:58.154Z,36.59
2019-02-27T07:57:35.309Z,36.63
2019-02-27T07:58:15.009Z,36.69
2019-02-27T07:58:51.940Z,36.70
2019-02-27T07:59:49.495Z,36.74
2019-02-27T08:00:28.106Z,36.78
2019-02-27T08:01:04.804Z,36.83
2019-02-27T08:01:44.077Z,36.83
2019-02-27T08:02:22.589Z,36.88
2019-02-27T08:03:01.273Z,36.90
2019-02-27T08:03:37.601Z,36.88
2019-02-27T08:04:19.045Z,36.90
2019-02-27T08:05:13.414Z,36.90
2019-02-27T08:05:51.426Z,36.83
2019-02-27T08:06:35.039Z,36.78
2019-02-27T08:07:13.585Z,36.79
2019-02-27T08:07:50.725Z,36.77
2019-02-27T08:08:30.768Z,36.69
2019-02-27T08:09:10.251Z,36.67
2019-02-27T08:09:46.452Z,36.71
2019-02-27T08:10:24.917Z,36.77
2019-02-27T08:11:02.238Z,36.79
2019-02-27T08:11:40.501Z,36.83
2019-02-27T08:12:20.782Z,36.86
2019-02-27T08:12:57.296Z,36.88
2019-02-27T08:13:34.714Z,36.92
2019-02-27T08:14:15.837Z,36.92
2019-02-27T08:14:52.153Z,36.93
2019-02-27T08:15:29.610Z,36.95
2019-02-27T08:16:06.001Z,36.94
2019-02-27T08:16:45.987Z,36.96
2019-02-27T08:17:39.399Z,36.95
2019-02-27T08:18:15.809Z,36.94
2019-02-27T08:18:54.398Z,36.92
2019-02-27T08:19:30.781Z,36.89
2019-02-27T08:20:10.069Z,36.89
2019-02-27T08:20:48.059Z,36.86
2019-02-27T08:21:26.105Z,36.88
2019-02-27T08:22:05.877Z,36.86
2019-02-27T08:22:45.356Z,36.86
2019-02-27T08:23:28.113Z,36.82
2019-02-27T08:24:08.782Z,36.77
2019-02-27T08:24:47.701Z,36.79
2019-02-27T08:25:25.522Z,36.80
2019-02-27T08:26:05.179Z,36.79
2019-02-27T08:26:44.157Z,36.79
2019-02-27T08:27:23.094Z,36.79
2019-02-27T08:27:59.684Z,36.78
2019-02-27T08:28:36.077Z,36.79
2019-02-27T08:29:15.786Z,36.77
2019-02-27T08:29:57.082Z,36.69
2019-02-27T08:30:33.314Z,36.71
2019-02-27T08:31:09.656Z,36.69
2019-02-27T08:31:45.853Z,36.70
2019-02-27T08:32:25.423Z,36.71
2019-02-27T08:33:03.348Z,36.71
2019-02-27T08:33:41.415Z,36.69
2019-02-27T08:34:18.545Z,36.70
2019-02-27T08:34:54.857Z,36.71
2019-02-27T08:35:31.506Z,36.74
2019-02-27T08:36:07.997Z,36.77
2019-02-27T08:36:46.504Z,36.74
2019-02-27T08:37:26.871Z,36.77
2019-02-27T08:38:04.183Z,36.77
2019-02-27T08:38:42.384Z,36.77
2019-02-27T08:39:18.836Z,36.79
2019-02-27T08:39:55.779Z,36.79
2019-02-27T08:40:35.648Z,36.77
2019-02-27T08:41:12.163Z,36.83
2019-02-27T08:41:48.524Z,36.82
2019-02-27T08:42:30.447Z,36.82
2019-02-27T08:43:10.243Z,36.83
2019-02-27T08:43:47.421Z,36.83
2019-02-27T08:44:30.172Z,36.78
2019-02-27T08:45:18.928Z,36.76
2019-02-27T08:45:47.665Z,36.75
2019-02-27T08:46:25.686Z,36.76
2019-02-27T08:47:04.325Z,36.75
2019-02-27T08:47:43.470Z,36.74
2019-02-27T08:48:21.152Z,36.75
2019-02-27T08:48:57.648Z,36.71
2019-02-27T08:49:37.434Z,36.70
2019-02-27T08:50:19.490Z,36.63
2019-02-27T08:50:56.193Z,36.61
2019-02-27T08:51:39.764Z,36.61
2019-02-27T08:52:16.284Z,36.61
2019-02-27T08:52:53.211Z,36.61
2019-02-27T08:53:30.825Z,36.63
2019-02-27T08:54:07.149Z,36.67
2019-02-27T08:54:44.758Z,36.67
2019-02-27T08:55:24.901Z,36.65
2019-02-27T08:56:01.625Z,36.62
2019-02-27T08:56:44.039Z,36.58
2019-02-27T08:57:21.342Z,36.55
2019-02-27T08:57:57.875Z,36.55
2019-02-27T08:58:34.170Z,36.54
2019-02-27T08:59:11.283Z,36.52
2019-02-27T08:59:50.548Z,36.52
2019-02-27T09:00:41.101Z,36.48
2019-02-27T09:01:21.417Z,36.51
2019-02-27T09:02:05.965Z,36.48
2019-02-27T09:02:43.779Z,36.45
2019-02-27T09:03:21.280Z,36.41
2019-02-27T09:03:57.625Z,36.36
2019-02-27T09:04:34.586Z,36.33
2019-02-27T09:05:11.084Z,36.30
2019-02-27T09:06:08.249Z,36.25
2019-02-27T09:06:47.385Z,36.15
2019-02-27T09:07:23.604Z,36.06
2019-02-27T09:07:59.947Z,36.07
2019-02-27T09:08:36.175Z,36.07
2019-02-27T09:09:15.051Z,36.03
2019-02-27T09:09:51.747Z,35.97
2019-02-27T09:10:38.021Z,35.95
2019-02-27T09:11:15.154Z,35.95
2019-02-27T09:11:56.967Z,35.92
2019-02-27T09:12:35.521Z,35.92
2019-02-27T09:13:12.142Z,35.87
2019-02-27T09:13:49.833Z,35.83
2019-02-27T09:14:26.966Z,35.81
2019-02-27T09:15:03.391Z,35.83
2019-02-27T09:15:44.237Z,35.82
2019-02-27T09:16:23.033Z,35.79
2019-02-27T09:16:59.805Z,35.74
2019-02-27T09:17:36.228Z,35.72
2019-02-27T09:18:15.091Z,35.72
2019-02-27T09:18:53.754Z,35.70
2019-02-27T09:19:34.630Z,35.71
2019-02-27T09:20:12.778Z,35.71
2019-02-27T09:20:53.278Z,35.70
2019-02-27T09:21:28.697Z,35.69
2019-02-27T09:22:06.235Z,35.68
2019-02-27T09:22:43.633Z,35.64
2019-02-27T09:23:20.018Z,35.65
2019-02-27T09:24:00.447Z,35.64
2019-02-27T09:24:38.578Z,35.64
2019-02-27T09:25:15.215Z,35.63
2019-02-27T09:25:57.310Z,35.59
2019-02-27T09:26:29.780Z,35.57
2019-02-27T09:27:11.484Z,35.60
2019-02-27T09:27:47.927Z,35.59
2019-02-27T09:28:47.733Z,35.57
2019-02-27T09:29:28.310Z,35.61
2019-02-27T09:30:07.709Z,35.54
2019-02-27T09:30:45.088Z,35.51
2019-02-27T09:31:21.461Z,35.50
2019-02-27T09:31:58.508Z,35.50
2019-02-27T09:32:58.193Z,35.50
2019-02-27T09:33:38.713Z,35.50
2019-02-27T09:34:12.692Z,35.54
2019-02-27T09:34:49.287Z,35.50
2019-02-27T09:35:47.027Z,35.52
2019-02-27T09:36:23.283Z,35.48
2019-02-27T09:36:59.528Z,35.47
2019-02-27T09:37:39.517Z,35.51
2019-02-27T09:38:15.926Z,35.54
2019-02-27T09:38:52.159Z,35.56